Flight Track Log - Related Links

Times and Time Zones

All times are in EDT time to prevent confusion due to time zone crossing. See the EJA922 flight status page for this flight to view local times or setup timezone preferences in your user account.

Time Position Orientation Groundspeed Altitude Reporting Facility
EDT Latitude Longitude Course Direction KTS MPH feet Rate Location/Type
Wed 11:18:31 AM 35.3769 -97.6094 208° Southwest 184 212 1,900  Level Fort Worth Center
Wed 11:19:08 AM 35.3456 -97.6300 208° Southwest 207 238 3,800 2,673 Climbing Fort Worth Center
Wed 11:20:21 AM 35.3119 -97.7036 241° Southwest 247 284 6,800 2,571 Climbing Fort Worth Center
Wed 11:21:21 AM 35.3431 -97.7953 293° West 265 305 9,500 1,900 Climbing Fort Worth Center
Wed 11:22:21 AM 35.3781 -97.8997 292° West 292 336 10,600 1,550 Climbing Fort Worth Center
Wed 11:23:21 AM 35.4172 -98.0172 292° West 340 391 12,600 2,000 Climbing Fort Worth Center
Wed 11:24:21 AM 35.4561 -98.1400 291° West 373 429 14,600 1,900 Climbing Fort Worth Center
Wed 11:25:21 AM 35.4908 -98.2650 289° West 391 450 16,400 1,750 Climbing Fort Worth Center
Wed 11:26:21 AM 35.5169 -98.3928 284° West 391 450 18,100 1,700 Climbing Fort Worth Center
Wed 11:27:21 AM 35.5431 -98.5258 284° West 396 456 19,800 1,650 Climbing Fort Worth Center
Wed 11:28:21 AM 35.5689 -98.6589 283° West 396 456 21,400 1,348 Climbing Fort Worth Center
Wed 11:30:28 AM 35.6206 -98.9344 283° West 419 482 24,000 1,257 Climbing Kansas City Center
Wed 11:31:32 AM 35.6489 -99.0794 284° West 428 493 25,400 1,296 Climbing Kansas City Center
Wed 11:32:33 AM 35.6758 -99.2253 283° West 432 497 26,700 1,161 Climbing Kansas City Center
Wed 11:33:36 AM 35.7061 -99.3736 284° West 438 504 27,800 1,200 Climbing Kansas City Center
Wed 11:34:38 AM 35.8256 -99.4931 321° Northwest 468 539 29,200 1,279 Climbing Kansas City Center
Wed 11:35:38 AM 35.9614 -99.5219 350° North 484 557 30,400 1,355 Climbing Kansas City Center
Wed 11:36:42 AM 36.0986 -99.5494 351° North 489 563 32,000 1,597 Climbing Kansas City Center
Wed 11:37:42 AM 36.2342 -99.5761 351° North 487 560 33,700 2,244 Climbing Kansas City Center
Wed 11:38:45 AM 36.3656 -99.6019 351° North 479 551 36,600 1,728 Climbing Kansas City Center
Wed 11:39:47 AM 36.4944 -99.6283 351° North 468 539 37,300 1,008 Climbing Kansas City Center
Wed 11:40:50 AM 36.6281 -99.6572 350° North 479 551 38,700 1,403 Climbing Kansas City Center
Wed 11:41:51 AM 36.7603 -99.6847 351° North 479 551 40,200 1,452 Climbing Kansas City Center
Wed 11:42:54 AM 36.8886 -99.7114 351° North 470 541 41,700 1,355 Climbing Kansas City Center
Wed 11:43:55 AM 37.0289 -99.7403 351° North 460 529 43,000 624 Climbing Kansas City Center
Wed 11:44:59 AM 37.1700 -99.7719 350° North 462 532 43,000  Level Kansas City Center
Wed 11:46:00 AM 37.2969 -99.7986 351° North 477 549 43,000  Level Kansas City Center
Wed 11:47:01 AM 37.4486 -99.8300 351° North 490 564 43,000  Level Kansas City Center
Wed 11:48:05 AM 37.5761 -99.8583 350° North 490 564 43,000  Level Kansas City Center
Wed 11:49:06 AM 37.7261 -99.8894 351° North 490 564 43,000  Level Kansas City Center
Wed 11:50:07 AM 37.8542 -99.9178 350° North 490 564 43,000  Level Kansas City Center
Wed 11:51:10 AM 38.0025 -99.9506 350° North 488 562 43,000  Level Kansas City Center
Wed 11:52:11 AM 38.1281 -99.9778 350° North 483 556 43,000  Level Kansas City Center
Wed 11:53:15 AM 38.2756 -100.0094 350° North 483 556 43,000  Level Kansas City Center
Wed 11:54:16 AM 38.4019 -100.0375 350° North 483 556 43,000  Level Kansas City Center
Wed 11:55:17 AM 38.5483 -100.0700 350° North 480 552 43,000  Level Kansas City Center
Wed 11:56:21 AM 38.6744 -100.0983 350° North 482 555 43,000  Level Kansas City Center
Wed 11:57:21 AM 38.8225 -100.1308 350° North 483 556 43,000  Level Kansas City Center
Wed 11:58:25 AM 38.9489 -100.1597 350° North 483 556 43,000  Level Kansas City Center
Wed 11:59:40 AM 39.1178 -100.1958 351° North 485 558 43,000  Level Denver Center
Wed 12:00:43 PM 39.2661 -100.2297 350° North 484 557 43,000  Level Denver Center
Wed 12:01:45 PM 39.3889 -100.2739 344° North 480 552 43,000  Level Denver Center
Wed 12:02:47 PM 39.5325 -100.3314 343° North 481 554 43,000  Level Denver Center
Wed 12:03:49 PM 39.6561 -100.3789 344° North 482 555 43,000  Level Denver Center
Wed 12:04:51 PM 39.7997 -100.4353 343° North 483 556 43,000  Level Denver Center
Wed 12:05:53 PM 39.9244 -100.4808 344° North 484 557 43,000  Level Denver Center
Wed 12:06:55 PM 40.0478 -100.5308 343° North 485 558 43,000  Level Denver Center
Wed 12:07:57 PM 40.1933 -100.5897 343° North 489 563 43,000  Level Denver Center
Wed 12:08:59 PM 40.3117 -100.6567 337° Northwest 485 558 43,000  Level Denver Center
Wed 12:10:01 PM 40.4486 -100.7408 335° Northwest 485 558 43,000  Level Denver Center
Wed 12:11:03 PM 40.5667 -100.8128 335° Northwest 485 558 43,000  Level Denver Center
Wed 12:12:05 PM 40.7050 -100.8983 335° Northwest 486 559 43,000  Level Denver Center
Wed 12:13:07 PM 40.8256 -100.9731 335° Northwest 489 563 43,000  Level Denver Center
Wed 12:14:09 PM 40.9458 -101.0458 335° Northwest 489 563 43,000  Level Denver Center
Wed 12:15:11 PM 41.0850 -101.1314 335° Northwest 490 564 43,000  Level Denver Center
Wed 12:16:13 PM 41.2044 -101.2056 335° Northwest 493 567 43,000  Level Denver Center
Wed 12:17:15 PM 41.3425 -101.2914 335° Northwest 491 565 43,000  Level Denver Center
Wed 12:18:17 PM 41.4639 -101.3664 335° Northwest 499 574 43,000  Level Denver Center
Wed 12:19:20 PM 41.6031 -101.4544 335° Northwest 497 572 43,000  Level Denver Center
Wed 12:20:22 PM 41.7236 -101.5286 335° Northwest 496 571 43,000  Level Denver Center
Wed 12:21:24 PM 41.8625 -101.6181 334° Northwest 497 572 43,000  Level Denver Center
Wed 12:22:26 PM 41.9825 -101.6942 335° Northwest 498 573 43,000  Level Denver Center
Wed 12:23:28 PM 42.1236 -101.7850 334° Northwest 502 578 43,000  Level Denver Center
Wed 12:24:30 PM 42.2450 -101.8622 335° Northwest 504 580 43,000  Level Denver Center
Wed 12:25:32 PM 42.3800 -101.9483 335° Northwest 509 586 43,000  Level Denver Center
Wed 12:26:34 PM 42.5019 -102.0281 334° Northwest 508 585 43,000  Level Denver Center
Wed 12:27:36 PM 42.6444 -102.1208 334° Northwest 509 586 43,000  Level Denver Center
Wed 12:28:38 PM 42.7664 -102.2017 334° Northwest 510 587 43,000  Level Denver Center
Wed 12:29:40 PM 42.9108 -102.2961 334° Northwest 516 594 43,000  Level Denver Center
Wed 12:30:42 PM 43.0331 -102.3767 334° Northwest 511 588 43,000  Level Denver Center
Wed 12:31:44 PM 43.1769 -102.4728 334° Northwest 516 594 43,000  Level Denver Center
Wed 12:32:46 PM 43.3028 -102.5567 334° Northwest 522 601 43,000  Level Denver Center
Wed 12:33:48 PM 43.4447 -102.6514 334° Northwest 513 590 43,000  Level Denver Center
Wed 12:34:50 PM 43.5683 -102.7339 334° Northwest 516 594 43,000  Level Denver Center
Wed 12:35:52 PM 43.7100 -102.8303 334° Northwest 510 587 43,000  Level Denver Center
Wed 12:36:54 PM 43.8322 -102.9133 334° Northwest 510 587 43,000  Level Denver Center
Wed 12:37:57 PM 43.9728 -103.0139 333° Northwest 512 589 43,000  Level Denver Center
Wed 12:38:59 PM 44.0750 -103.1261 322° Northwest 497 572 43,000  Level Denver Center
Wed 12:40:01 PM 44.1908 -103.2611 320° Northwest 491 565 43,000  Level Denver Center
Wed 12:41:03 PM 44.2914 -103.3792 320° Northwest 492 566 43,000  Level Denver Center
Wed 12:42:05 PM 44.4078 -103.5147 320° Northwest 491 565 43,000  Level Denver Center
Wed 12:43:07 PM 44.5075 -103.6325 320° Northwest 491 565 43,000  Level Denver Center
Wed 12:44:09 PM 44.6236 -103.7717 320° Northwest 492 566 43,000  Level Denver Center
Wed 12:45:11 PM 44.7222 -103.8906 319° Northwest 490 564 43,000  Level Denver Center
Wed 12:46:13 PM 44.8386 -104.0281 320° Northwest 490 564 43,000  Level Denver Center
Wed 12:47:08 PM 44.9231 -104.1256 321° Northwest 492 566 43,000  Level Salt Lake Center
Wed 12:48:10 PM 45.0383 -104.2658 319° Northwest 492 566 43,000  Level Salt Lake Center
Wed 12:49:12 PM 45.1386 -104.3883 319° Northwest 495 570 43,000  Level Salt Lake Center
Wed 12:50:14 PM 45.2389 -104.5028 321° Northwest 494 568 43,000  Level Salt Lake Center
Wed 12:51:15 PM 45.3692 -104.6450 323° Northwest 494 568 43,000  Level Salt Lake Center
Wed 12:52:17 PM 45.4772 -104.7603 323° Northwest 490 564 43,000  Level Salt Lake Center
Wed 12:53:19 PM 45.5903 -104.8658 327° Northwest 488 562 43,000  Level Salt Lake Center
Wed 12:54:21 PM 45.7169 -104.9450 336° Northwest 495 570 43,000  Level Salt Lake Center
Wed 12:55:23 PM 45.8433 -105.0272 336° Northwest 497 572 43,000  Level Salt Lake Center
Wed 12:56:24 PM 45.9686 -105.1069 336° Northwest 496 571 43,000  Level Salt Lake Center
Wed 12:57:26 PM 46.0939 -105.1867 336° Northwest 494 568 43,000  Level Salt Lake Center
Wed 12:58:28 PM 46.2453 -105.2850 336° Northwest 495 570 43,000 -48 Level Salt Lake Center
Wed 12:59:30 PM 46.3719 -105.3675 336° Northwest 497 572 42,900  Descending Salt Lake Center
Wed 01:00:32 PM 46.4981 -105.4511 335° Northwest 497 572 43,000 49 Climbing Salt Lake Center
Wed 01:01:33 PM 46.6256 -105.5361 335° Northwest 499 574 43,000  Level Salt Lake Center
Wed 01:02:35 PM 46.7519 -105.6197 336° Northwest 500 575 43,000  Level Salt Lake Center
Wed 01:03:37 PM 46.8772 -105.7053 335° Northwest 499 574 43,000  Level Salt Lake Center
Wed 01:04:38 PM 47.0025 -105.7894 335° Northwest 497 572 43,000  Level Salt Lake Center
Wed 01:05:40 PM 47.1289 -105.8739 336° Northwest 498 573 43,000  Level Salt Lake Center
Wed 01:06:42 PM 47.2822 -105.9781 335° Northwest 501 577 43,000  Level Salt Lake Center
Wed 01:07:43 PM 47.4056 -106.0625 335° Northwest 496 571 43,000  Level Salt Lake Center
Wed 01:08:45 PM 47.5283 -106.1464 335° Northwest 490 564 43,000  Level Salt Lake Center
Wed 01:09:47 PM 47.6500 -106.2325 335° Northwest 487 560 43,000  Level Salt Lake Center
Wed 01:10:48 PM 47.7733 -106.3178 335° Northwest 488 562 43,000  Level Salt Lake Center
Wed 01:11:50 PM 47.8964 -106.4042 335° Northwest 488 562 43,000  Level Salt Lake Center
Wed 01:12:52 PM 48.0192 -106.4889 335° Northwest 487 560 43,000  Level Salt Lake Center
Wed 01:13:53 PM 48.1394 -106.5747 335° Northwest 484 557 43,000  Level Salt Lake Center
Wed 01:14:55 PM 48.2786 -106.6969 330° Northwest 485 558 43,000 -48 Level Salt Lake Center
Wed 01:15:57 PM 48.3828 -106.8208 322° Northwest 480 552 42,900  Descending Salt Lake Center
Wed 01:16:58 PM 48.4878 -106.9422 323° Northwest 478 550 43,000 49 Climbing Salt Lake Center
Wed 01:18:00 PM 48.5922 -107.0664 322° Northwest 478 550 43,000  Level Salt Lake Center
Wed 01:19:02 PM 48.6969 -107.1892 322° Northwest 478 550 43,000  Level Salt Lake Center
Wed 01:20:03 PM 48.8028 -107.3153 322° Northwest 481 554 43,000  Level Salt Lake Center
Wed 01:21:05 PM 48.9089 -107.4417 322° Northwest 484 557 43,000  Level Salt Lake Center
Wed 01:21:37 PM 48.9667 -107.5667 305° West 480 552 43,000  Level Winnipeg Center
Wed 01:22:37 PM 49.0667 -107.6833 323° Northwest 480 552 43,000  Level Winnipeg Center
Wed 01:23:37 PM 49.1667 -107.8167 319° Northwest 480 552 43,000  Level Winnipeg Center
Wed 01:24:37 PM 49.2667 -107.9333 323° Northwest 480 552 43,000  Level Winnipeg Center
Wed 01:25:37 PM 49.3833 -108.0667 323° Northwest 480 552 43,000  Level Winnipeg Center
Wed 01:26:37 PM 49.4833 -108.2000 319° Northwest 480 552 43,000  Level Winnipeg Center
Wed 01:27:37 PM 49.5833 -108.3167 323° Northwest 480 552 43,000  Level Winnipeg Center
Wed 01:28:37 PM 49.6833 -108.4500 319° Northwest 470 541 43,000  Level Winnipeg Center
Wed 01:29:37 PM 49.7833 -108.5833 319° Northwest 470 541 43,000  Level Winnipeg Center
Wed 01:30:37 PM 49.9000 -108.7167 324° Northwest 480 552 43,000  Level Winnipeg Center
Wed 01:31:37 PM 50.0000 -108.8500 319° Northwest 480 552 43,000  Level Winnipeg Center
Wed 01:32:37 PM 50.0833 -108.9667 318° Northwest 470 541 43,000  Level Winnipeg Center
Wed 01:33:37 PM 50.1833 -109.1000 320° Northwest 470 541 43,000  Level Winnipeg Center
Wed 01:34:37 PM 50.3000 -109.2333 324° Northwest 470 541 43,000  Level Winnipeg Center
Wed 01:35:37 PM 50.4000 -109.3667 320° Northwest 470 541 43,000  Level Winnipeg Center
Wed 01:36:37 PM 50.5000 -109.4833 323° Northwest 470 541 43,000  Level Winnipeg Center
Wed 01:37:37 PM 50.6000 -109.6333 316° Northwest 470 541 43,000  Level Winnipeg Center
Wed 01:38:37 PM 50.7167 -109.7500 328° Northwest 480 552 43,000  Level Winnipeg Center
Wed 01:39:37 PM 50.8167 -109.9167 314° West 480 552 43,000  Level Winnipeg Center
Wed 01:40:37 PM 50.9000 -110.0167 323° Northwest 470 541 43,000  Level Winnipeg Center
Wed 01:41:37 PM 51.0167 -110.1667 321° Northwest 470 541 43,000  Level Winnipeg Center
Wed 01:42:37 PM 51.1167 -110.2667 328° Northwest 470 541 43,000  Level Winnipeg Center
Wed 01:43:37 PM 51.2333 -110.4167 321° Northwest 470 541 43,000  Level Winnipeg Center
Wed 01:44:37 PM 51.3333 -110.5167 328° Northwest 470 541 43,000  Level Winnipeg Center
Wed 01:45:48 PM 51.4500 -110.6333 328° Northwest 460 529 43,000  Level Edmonton Center
Wed 01:46:48 PM 51.5500 -110.7500 324° Northwest 460 529 43,000  Level Edmonton Center
Wed 01:47:37 PM 51.6500 -110.8833 320° Northwest 470 541 43,000  Level Winnipeg Center
Wed 01:48:37 PM 51.7500 -111.0000 324° Northwest 470 541 43,000  Level Winnipeg Center
Wed 01:49:37 PM 51.8500 -111.1167 324° Northwest 470 541 43,000  Level Winnipeg Center
Wed 01:50:37 PM 51.9500 -111.2667 317° Northwest 460 529 43,000  Level Winnipeg Center
Wed 01:51:37 PM 52.0667 -111.3833 328° Northwest 470 541 43,000 -900 Level Winnipeg Center
Wed 01:52:37 PM 52.1667 -111.5000 324° Northwest 480 552 41,200 -2,150 Descending Winnipeg Center
Wed 01:53:37 PM 52.2833 -111.6500 322° Northwest 470 541 38,700 -2,400 Descending Winnipeg Center
Wed 01:54:37 PM 52.3667 -111.7667 319° Northwest 440 506 36,400 -2,336 Descending Winnipeg Center
Wed 01:55:48 PM 52.4833 -111.8833 329° Northwest 430 495 33,600 -2,244 Descending Edmonton Center
Wed 01:56:48 PM 52.5667 -111.9833 324° Northwest 430 495 31,500 -2,250 Descending Edmonton Center
Wed 01:57:48 PM 52.6667 -112.1167 321° Northwest 420 483 29,100 -2,250 Descending Edmonton Center
Wed 01:58:48 PM 52.7667 -112.2167 329° Northwest 420 483 27,000 -2,200 Descending Edmonton Center
Wed 01:59:48 PM 52.8500 -112.3333 320° Northwest 410 472 24,700 -2,150 Descending Edmonton Center
Wed 02:00:48 PM 52.9333 -112.4333 324° Northwest 380 437 22,700 -2,250 Descending Edmonton Center
Wed 02:01:48 PM 53.0167 -112.5833 313° West 410 472 20,200 -3,150 Descending Edmonton Center
Wed 02:02:48 PM 53.0833 -112.7167 310° West 400 460 16,400 -3,550 Descending Edmonton Center
Wed 02:03:48 PM 53.1667 -112.8500 316° Northwest 370 426 13,100 -2,650 Descending Edmonton Center
Wed 02:04:48 PM 53.2333 -112.9500 318° Northwest 330 380 11,100 -1,600 Descending Edmonton Center
Wed 02:05:48 PM 53.3000 -113.0500 318° Northwest 280 322 9,900 -1,450 Descending Edmonton Center
Wed 02:06:48 PM 53.3667 -113.1167 329° Northwest 260 299 8,200 -1,450 Descending Edmonton Center
Wed 02:07:48 PM 53.4167 -113.2000 315° West 240 276 7,000 -1,100 Descending Edmonton Center
Wed 02:08:48 PM 53.4167 -113.3000 270° West 220 253 6,000 -1,000 Descending Edmonton Center
Wed 02:09:48 PM 53.4333 -113.3833 289° West 200 230 5,000 -950 Descending Edmonton Center
Wed 02:10:48 PM 53.4000 -113.4667 236° Southwest 170 196 4,100 -650 Descending Edmonton Center
Wed 02:11:48 PM 53.3667 -113.5167 222° Southwest 170 196 3,700 -400 Descending Edmonton Center
Wed 02:12:48 PM 53.3500 -113.5333 211° Southwest 120 138 3,300 -500 Descending Edmonton Center
Wed 02:13:48 PM 53.3167 -113.5833 222° Southwest 110 127 2,700 -450 Descending Edmonton Center
Wed 02:14:48 PM 53.3000 -113.6167 230° Southwest 120 138 2,400 -300 Descending Edmonton Center

Login

Don't have an account? Register now (free) for customized features, flight alerts, and more!